createdAt,value
2022-09-25T00:03:53.638Z,99971.75
2022-09-25T00:09:07.865Z,99966.16
2022-09-25T00:14:28.723Z,99967.13
2022-09-25T00:19:55.213Z,99960.81
2022-09-25T00:24:59.753Z,99961.59
2022-09-25T00:30:12.989Z,99962.88
2022-09-25T00:35:24.233Z,99958.25
2022-09-25T00:40:37.459Z,99960.53
2022-09-25T00:45:46.355Z,99966.22
2022-09-25T00:51:02.930Z,99959.78
2022-09-25T00:56:20.182Z,99958.75
2022-09-25T01:01:41.263Z,99956.03
2022-09-25T01:06:53.553Z,99958.38
2022-09-25T01:12:16.583Z,99949.19
2022-09-25T01:17:41.456Z,99947.97
2022-09-25T01:23:08.327Z,99943.03
2022-09-25T01:28:38.615Z,99947.59
2022-09-25T01:33:50.247Z,99952.19
2022-09-25T01:39:14.359Z,99944.44
2022-09-25T01:44:33.279Z,99935.09
2022-09-25T01:49:59.788Z,99935.22
2022-09-25T01:55:14.690Z,99936.22
2022-09-25T02:00:52.141Z,99940.63
2022-09-25T02:06:07.902Z,99945.50
2022-09-25T02:11:20.470Z,99949.53
2022-09-25T02:16:35.615Z,99931.47
2022-09-25T02:27:16.719Z,99948.78
2022-09-25T02:32:27.099Z,99942.56
2022-09-25T02:37:36.003Z,99943.06
2022-09-25T02:42:52.168Z,99936.72
2022-09-25T02:48:21.348Z,99956.41
2022-09-25T02:53:40.078Z,99955.59
2022-09-25T02:58:51.105Z,99951.03
2022-09-25T03:04:03.132Z,99952.69
2022-09-25T03:09:19.036Z,99951.72
2022-09-25T03:19:49.942Z,99949.69
2022-09-25T03:25:17.969Z,99947.75
2022-09-25T03:30:25.331Z,99945.25
2022-09-25T03:35:35.559Z,99944.28
2022-09-25T03:41:01.812Z,99949.22
2022-09-25T03:46:11.570Z,99954.19
2022-09-25T03:51:21.730Z,99948.78
2022-09-25T03:56:43.751Z,99943.41
2022-09-25T04:02:02.793Z,99942.72
2022-09-25T04:07:11.814Z,99942.19
2022-09-25T04:12:22.236Z,99929.75
2022-09-25T04:17:34.021Z,99940.63
2022-09-25T04:22:49.188Z,99937.41
2022-09-25T04:27:59.671Z,99937.41
2022-09-25T04:33:21.424Z,99948.59
2022-09-25T04:38:36.907Z,99947.00
2022-09-25T04:49:21.894Z,99943.94
2022-09-25T04:54:32.056Z,99949.84
2022-09-25T04:59:41.096Z,99947.75
2022-09-25T05:04:47.100Z,99947.75
2022-09-25T05:09:52.395Z,99950.25
2022-09-25T05:15:02.813Z,99947.19
2022-09-25T05:20:13.297Z,99949.66
2022-09-25T05:25:35.738Z,99946.72
2022-09-25T05:31:15.657Z,99960.38
2022-09-25T05:36:23.409Z,99960.22
2022-09-25T05:41:37.926Z,99963.38
2022-09-25T05:46:49.270Z,99960.97
2022-09-25T05:51:57.986Z,99966.88
2022-09-25T05:57:05.981Z,99955.41
2022-09-25T06:02:15.019Z,99951.00
2022-09-25T06:07:30.441Z,99953.97
2022-09-25T06:13:06.357Z,99948.28
2022-09-25T06:24:14.927Z,99944.59
2022-09-25T06:34:48.133Z,99950.59
2022-09-25T06:39:53.124Z,99956.22
2022-09-25T06:45:10.236Z,99963.47
2022-09-25T06:50:21.209Z,99963.31
2022-09-25T06:55:48.502Z,99964.19
2022-09-25T07:01:13.069Z,99964.22
2022-09-25T07:06:39.566Z,99972.97
2022-09-25T07:11:49.911Z,99960.03
2022-09-25T07:17:05.618Z,99963.38
2022-09-25T07:22:19.005Z,99958.34
2022-09-25T07:27:27.889Z,99964.59
2022-09-25T07:33:00.187Z,99969.91
2022-09-25T07:38:14.755Z,99955.97
2022-09-25T07:43:23.273Z,99946.47
2022-09-25T07:48:38.446Z,99962.59
2022-09-25T07:53:47.711Z,99958.69
2022-09-25T07:59:00.158Z,99950.16
2022-09-25T08:04:27.474Z,99943.13
2022-09-25T08:09:39.725Z,99950.16
2022-09-25T08:14:52.748Z,99950.13
2022-09-25T08:20:10.319Z,99945.81
2022-09-25T08:25:19.064Z,99952.69
2022-09-25T08:31:08.601Z,99947.31
2022-09-25T08:36:49.148Z,99943.31
2022-09-25T08:42:27.309Z,99936.03
2022-09-25T08:47:56.599Z,99933.69
2022-09-25T08:58:35.541Z,99934.88
2022-09-25T09:03:54.529Z,99926.09
2022-09-25T09:09:18.428Z,99939.34
2022-09-25T09:14:41.806Z,99939.88
2022-09-25T09:19:56.239Z,99938.09
2022-09-25T09:25:10.434Z,99938.63
2022-09-25T09:30:28.178Z,99931.94
2022-09-25T09:35:42.667Z,99932.69
2022-09-25T09:41:05.971Z,99937.94
2022-09-25T09:46:37.078Z,99936.34
2022-09-25T09:51:49.016Z,99933.31
2022-09-25T09:57:04.501Z,99935.34
2022-09-25T10:02:42.201Z,99933.41
2022-09-25T10:08:03.558Z,99935.50
2022-09-25T10:13:19.570Z,99924.88
2022-09-25T10:18:36.395Z,99927.16
2022-09-25T10:24:11.556Z,99920.59
2022-09-25T10:29:44.369Z,99913.38
2022-09-25T10:35:31.084Z,99904.00
2022-09-25T10:40:40.062Z,99897.72
2022-09-25T10:45:46.443Z,99889.50
2022-09-25T10:51:24.949Z,99895.03
2022-09-25T10:56:40.661Z,99881.13
2022-09-25T11:01:47.522Z,99870.75
2022-09-25T11:07:07.705Z,99880.13
2022-09-25T11:12:19.100Z,99870.19
2022-09-25T11:17:34.040Z,99864.31
2022-09-25T11:22:54.452Z,99854.09
2022-09-25T11:28:12.535Z,99857.78
2022-09-25T11:33:32.524Z,99854.59
2022-09-25T11:39:11.672Z,99851.72
2022-09-25T11:44:35.062Z,99860.13
2022-09-25T11:49:41.220Z,99851.97
2022-09-25T11:55:06.854Z,99851.38
2022-09-25T12:00:23.326Z,99840.19
2022-09-25T12:05:55.504Z,99841.63
2022-09-25T12:11:22.689Z,99842.03
2022-09-25T12:16:41.792Z,99830.38
2022-09-25T12:21:54.086Z,99824.84
2022-09-25T12:27:34.495Z,99824.69
2022-09-25T12:33:18.852Z,99824.69
2022-09-25T12:38:56.044Z,99815.28
2022-09-25T12:44:08.077Z,99813.03
2022-09-25T12:49:18.091Z,99799.78
2022-09-25T12:54:33.392Z,99800.78
2022-09-25T12:59:48.421Z,99792.19
2022-09-25T13:05:08.194Z,99792.78
2022-09-25T13:10:35.626Z,99789.94
2022-09-25T13:21:32.027Z,99773.56
2022-09-25T13:26:49.298Z,99771.94
2022-09-25T13:32:07.044Z,99767.28
2022-09-25T13:37:18.631Z,99761.75
2022-09-25T13:42:44.096Z,99754.19
2022-09-25T13:48:13.049Z,99757.03
2022-09-25T13:53:52.552Z,99750.50
2022-09-25T13:59:28.154Z,99755.41
2022-09-25T14:04:40.996Z,99746.81
2022-09-25T14:09:55.236Z,99743.97
2022-09-25T14:15:18.737Z,99739.06
2022-09-25T14:20:44.041Z,99732.50
2022-09-25T14:26:30.037Z,99719.22
2022-09-25T14:31:55.213Z,99719.84
2022-09-25T14:37:29.924Z,99718.59
2022-09-25T14:43:02.514Z,99714.53
2022-09-25T14:48:18.847Z,99712.44
2022-09-25T14:53:40.591Z,99714.06
2022-09-25T14:58:52.834Z,99716.69
2022-09-25T15:04:07.698Z,99722.22
2022-09-25T15:09:32.796Z,99711.59
2022-09-25T15:14:39.390Z,99709.94
2022-09-25T15:19:49.834Z,99713.97
2022-09-25T15:25:05.765Z,99716.59
2022-09-25T15:30:24.296Z,99714.25
2022-09-25T15:35:30.638Z,99711.13
2022-09-25T15:40:38.394Z,99715.13
2022-09-25T15:45:54.641Z,99717.13
2022-09-25T15:51:08.942Z,99712.00
2022-09-25T15:56:31.264Z,99710.31
2022-09-25T16:02:02.618Z,99721.22
2022-09-25T16:07:35.759Z,99723.19
2022-09-25T16:12:51.623Z,99735.13
2022-09-25T16:18:07.422Z,99732.38
2022-09-25T16:23:33.012Z,99727.59
2022-09-25T16:28:41.847Z,99721.88
2022-09-25T16:34:02.668Z,99727.44
2022-09-25T16:39:27.086Z,99733.59
2022-09-25T16:45:07.996Z,99736.16
2022-09-25T16:50:17.482Z,99734.75
2022-09-25T16:55:24.587Z,99734.22
2022-09-25T17:00:33.261Z,99738.16
2022-09-25T17:05:43.349Z,99729.47
2022-09-25T17:10:52.843Z,99723.47
2022-09-25T17:16:06.787Z,99726.00
2022-09-25T17:21:17.470Z,99726.75
2022-09-25T17:26:29.682Z,99724.66
2022-09-25T17:31:40.591Z,99730.94
2022-09-25T17:36:55.310Z,99730.47
2022-09-25T17:42:00.595Z,99730.66
2022-09-25T17:47:16.408Z,99733.38
2022-09-25T17:52:24.604Z,99731.56
2022-09-25T17:57:32.741Z,99736.59
2022-09-25T18:03:01.584Z,99737.75
2022-09-25T18:08:06.554Z,99731.19
2022-09-25T18:13:21.128Z,99737.50
2022-09-25T18:18:48.815Z,99741.28
2022-09-25T18:24:05.399Z,99737.19
2022-09-25T18:29:27.950Z,99735.09
2022-09-25T18:34:38.772Z,99738.09
2022-09-25T18:39:58.207Z,99738.09
2022-09-25T18:45:05.438Z,99734.16
2022-09-25T18:50:20.953Z,99736.81
2022-09-25T18:55:38.146Z,99740.81
2022-09-25T19:00:46.415Z,99748.25
2022-09-25T19:06:14.898Z,99745.97
2022-09-25T19:11:23.910Z,99741.88
2022-09-25T19:16:37.858Z,99743.69
2022-09-25T19:21:53.921Z,99735.31
2022-09-25T19:27:06.911Z,99731.88
2022-09-25T19:32:14.319Z,99738.47
2022-09-25T19:37:32.001Z,99737.66
2022-09-25T19:42:37.730Z,99733.75
2022-09-25T19:47:50.759Z,99731.28
2022-09-25T19:52:58.188Z,99728.84
2022-09-25T19:58:02.499Z,99722.94
2022-09-25T20:03:17.853Z,99731.66
2022-09-25T20:08:31.239Z,99724.75
2022-09-25T20:13:36.881Z,99729.22
2022-09-25T20:18:47.666Z,99720.66
2022-09-25T20:24:00.070Z,99715.75
2022-09-25T20:29:06.435Z,99713.44
2022-09-25T20:34:23.418Z,99706.63
2022-09-25T20:39:30.558Z,99709.63
2022-09-25T20:44:36.325Z,99719.34
2022-09-25T20:49:51.720Z,99715.91
2022-09-25T20:55:08.896Z,99731.25
2022-09-25T21:00:19.284Z,99738.16
2022-09-25T21:05:45.267Z,99729.81
2022-09-25T21:11:17.212Z,99725.53
2022-09-25T21:16:43.112Z,99719.31
2022-09-25T21:22:03.160Z,99727.94
2022-09-25T21:27:13.446Z,99722.34
2022-09-25T21:32:33.601Z,99723.69
2022-09-25T21:37:56.158Z,99712.69
2022-09-25T21:43:13.651Z,99713.38
2022-09-25T21:48:22.215Z,99714.88
2022-09-25T21:53:32.045Z,99707.69
2022-09-25T21:58:55.188Z,99713.13
2022-09-25T22:04:16.492Z,99711.66
2022-09-25T22:09:26.795Z,99709.72
2022-09-25T22:14:33.830Z,99715.97
2022-09-25T22:19:40.015Z,99709.41
2022-09-25T22:24:47.168Z,99703.50
2022-09-25T22:30:06.500Z,99699.56
2022-09-25T22:35:26.145Z,99703.72
2022-09-25T22:40:37.549Z,99701.25
2022-09-25T22:45:52.032Z,99690.69
2022-09-25T22:50:57.478Z,99681.69
2022-09-25T22:56:15.080Z,99675.13
2022-09-25T23:01:31.470Z,99663.91
2022-09-25T23:06:47.108Z,99671.16
2022-09-25T23:11:55.672Z,99663.59
2022-09-25T23:17:08.356Z,99662.97
2022-09-25T23:22:22.857Z,99662.31
2022-09-25T23:27:27.695Z,99654.56
2022-09-25T23:32:33.813Z,99649.66
2022-09-25T23:37:41.299Z,99643.75
2022-09-25T23:42:50.536Z,99641.28
2022-09-25T23:48:06.444Z,99638.00
2022-09-25T23:53:24.881Z,99635.06
2022-09-25T23:58:47.797Z,99633.59
